createdAt,value
2022-09-28T00:02:03.826Z,7.65
2022-09-28T00:04:50.463Z,7.60
2022-09-28T00:07:38.700Z,7.71
2022-09-28T00:10:25.441Z,7.74
2022-09-28T00:13:13.204Z,7.74
2022-09-28T00:16:01.450Z,7.69
2022-09-28T00:18:51.354Z,7.66
2022-09-28T00:21:39.495Z,7.86
2022-09-28T00:24:27.920Z,7.84
2022-09-28T00:27:14.451Z,7.79
2022-09-28T00:30:01.825Z,7.71
2022-09-28T00:32:48.666Z,7.72
2022-09-28T00:35:35.331Z,7.74
2022-09-28T00:38:22.226Z,7.72
2022-09-28T00:41:11.744Z,7.82
2022-09-28T00:44:42.907Z,7.90
2022-09-28T00:47:43.723Z,7.87
2022-09-28T00:50:33.248Z,7.91
2022-09-28T00:53:22.925Z,8.02
2022-09-28T00:56:15.197Z,8.34
2022-09-28T00:59:04.824Z,8.29
2022-09-28T01:01:51.556Z,8.48
2022-09-28T01:04:39.395Z,8.35
2022-09-28T01:07:26.715Z,8.42
2022-09-28T01:10:13.596Z,8.36
2022-09-28T01:13:01.795Z,8.30
2022-09-28T01:15:56.791Z,8.18
2022-09-28T01:18:54.827Z,8.25
2022-09-28T01:21:52.484Z,8.23
2022-09-28T01:24:44.089Z,8.34
2022-09-28T01:27:36.241Z,8.32
2022-09-28T01:30:23.872Z,8.22
2022-09-28T01:33:14.195Z,8.29
2022-09-28T01:36:07.236Z,8.29
2022-09-28T01:38:57.185Z,8.31
2022-09-28T01:41:49.504Z,8.34
2022-09-28T01:44:43.248Z,8.37
2022-09-28T01:47:36.468Z,8.25
2022-09-28T01:50:27.258Z,8.16
2022-09-28T01:53:20.334Z,8.20
2022-09-28T01:56:13.025Z,8.22
2022-09-28T01:59:05.314Z,8.30
2022-09-28T02:01:57.881Z,8.31
2022-09-28T02:04:49.304Z,8.23
2022-09-28T02:07:40.313Z,8.15
2022-09-28T02:10:31.050Z,8.19
2022-09-28T02:13:22.135Z,8.12
2022-09-28T02:16:18.456Z,8.12
2022-09-28T02:19:07.981Z,8.09
2022-09-28T02:22:00.512Z,8.07
2022-09-28T02:24:55.075Z,8.05
2022-09-28T02:27:53.610Z,8.04
2022-09-28T02:30:43.483Z,8.04
2022-09-28T02:33:34.287Z,8.02
2022-09-28T02:36:23.368Z,8.17
2022-09-28T02:39:14.612Z,8.08
2022-09-28T02:42:13.287Z,8.08
2022-09-28T02:45:16.895Z,8.05
2022-09-28T02:48:15.547Z,8.06
2022-09-28T02:51:12.569Z,8.08
2022-09-28T02:54:22.421Z,8.16
2022-09-28T02:57:19.731Z,8.14
2022-09-28T03:00:10.366Z,8.11
2022-09-28T03:03:08.890Z,8.13
2022-09-28T03:06:01.699Z,8.12
2022-09-28T03:09:00.407Z,8.08
2022-09-28T03:11:57.142Z,8.13
2022-09-28T03:14:43.947Z,8.07
2022-09-28T03:17:30.803Z,8.07
2022-09-28T03:20:18.239Z,7.95
2022-09-28T03:23:23.810Z,8.05
2022-09-28T03:26:12.766Z,8.05
2022-09-28T03:29:01.076Z,8.06
2022-09-28T03:31:49.292Z,8.03
2022-09-28T03:34:36.726Z,8.09
2022-09-28T03:37:23.531Z,8.13
2022-09-28T03:40:11.143Z,8.06
2022-09-28T03:42:57.653Z,8.01
2022-09-28T03:45:53.066Z,8.01
2022-09-28T03:48:41.247Z,7.85
2022-09-28T03:51:29.696Z,7.87
2022-09-28T03:54:16.406Z,7.81
2022-09-28T03:57:03.557Z,7.81
2022-09-28T03:59:50.150Z,7.74
2022-09-28T04:02:38.308Z,7.71
2022-09-28T04:05:25.211Z,7.75
2022-09-28T04:08:11.875Z,7.64
2022-09-28T04:10:59.948Z,7.54
2022-09-28T04:13:49.983Z,7.45
2022-09-28T04:16:36.884Z,7.37
2022-09-28T04:19:32.068Z,7.29
2022-09-28T04:22:33.071Z,7.19
2022-09-28T04:25:20.468Z,7.17
2022-09-28T04:28:24.905Z,7.07
2022-09-28T04:31:13.195Z,6.98
2022-09-28T04:34:00.061Z,6.92
2022-09-28T04:36:49.738Z,6.86
2022-09-28T04:39:38.745Z,6.81
2022-09-28T04:42:26.522Z,6.78
2022-09-28T04:45:13.469Z,6.73
2022-09-28T04:48:07.535Z,6.69
2022-09-28T04:51:19.120Z,6.66
2022-09-28T04:54:07.425Z,6.57
2022-09-28T04:56:54.580Z,6.55
2022-09-28T04:59:41.058Z,6.50
2022-09-28T05:02:29.614Z,6.46
2022-09-28T05:05:35.998Z,6.45
2022-09-28T05:08:48.456Z,6.55
2022-09-28T05:11:37.936Z,6.48
2022-09-28T05:14:29.721Z,6.46
2022-09-28T05:17:16.537Z,6.50
2022-09-28T05:20:22.163Z,6.57
2022-09-28T05:23:11.502Z,6.51
2022-09-28T05:26:02.280Z,6.74
2022-09-28T05:28:51.354Z,6.81
2022-09-28T05:31:44.366Z,6.98
2022-09-28T05:34:37.102Z,7.08
2022-09-28T05:37:24.372Z,7.32
2022-09-28T05:40:12.504Z,7.32
2022-09-28T05:43:03.064Z,7.39
2022-09-28T05:45:55.664Z,7.45
2022-09-28T05:48:42.601Z,7.48
2022-09-28T05:51:29.395Z,7.52
2022-09-28T05:54:16.505Z,7.57
2022-09-28T05:57:07.085Z,7.71
2022-09-28T05:59:53.757Z,7.72
2022-09-28T06:02:41.868Z,7.75
2022-09-28T06:05:32.431Z,7.78
2022-09-28T06:08:18.953Z,7.81
2022-09-28T06:11:12.932Z,7.82
2022-09-28T06:13:59.693Z,7.90
2022-09-28T06:16:50.158Z,8.21
2022-09-28T06:19:39.165Z,8.21
2022-09-28T06:22:44.822Z,8.14
2022-09-28T06:25:32.272Z,8.19
2022-09-28T06:28:19.014Z,8.21
2022-09-28T06:31:06.727Z,8.26
2022-09-28T06:34:02.229Z,8.35
2022-09-28T06:36:50.422Z,8.41
2022-09-28T06:39:37.638Z,8.46
2022-09-28T06:42:25.498Z,8.57
2022-09-28T06:45:53.118Z,8.83
2022-09-28T06:48:45.249Z,8.82
2022-09-28T06:51:37.813Z,9.07
2022-09-28T06:54:33.452Z,9.07
2022-09-28T06:57:22.742Z,9.17
2022-09-28T07:00:10.707Z,9.19
2022-09-28T07:02:57.902Z,9.33
2022-09-28T07:06:02.231Z,9.46
2022-09-28T07:09:26.969Z,9.59
2022-09-28T07:12:36.285Z,9.99
2022-09-28T07:15:33.453Z,10.07
2022-09-28T07:18:21.628Z,10.19
2022-09-28T07:21:11.308Z,10.23
2022-09-28T07:24:02.209Z,10.25
2022-09-28T07:26:58.039Z,10.29
2022-09-28T07:30:04.828Z,10.42
2022-09-28T07:33:06.675Z,10.44
2022-09-28T07:36:11.844Z,10.51
2022-09-28T07:38:58.398Z,10.49
2022-09-28T07:41:46.199Z,10.57
2022-09-28T07:44:33.857Z,10.63
2022-09-28T07:47:30.885Z,10.65
2022-09-28T07:50:54.310Z,10.72
2022-09-28T07:53:54.230Z,10.76
2022-09-28T07:56:59.650Z,10.72
2022-09-28T07:59:58.633Z,10.64
2022-09-28T08:03:08.165Z,10.52
2022-09-28T08:05:59.782Z,10.65
2022-09-28T08:08:46.613Z,10.69
2022-09-28T08:11:36.285Z,10.47
2022-09-28T08:14:52.845Z,10.40
2022-09-28T08:18:01.975Z,10.50
2022-09-28T08:21:10.699Z,10.58
2022-09-28T08:23:58.077Z,10.65
2022-09-28T08:26:45.290Z,11.00
2022-09-28T08:29:34.962Z,11.04
2022-09-28T08:32:47.895Z,11.16
2022-09-28T08:36:08.574Z,10.97
2022-09-28T08:39:13.989Z,10.91
2022-09-28T08:42:33.658Z,11.11
2022-09-28T08:45:43.185Z,11.32
2022-09-28T08:49:20.576Z,11.46
2022-09-28T08:52:23.571Z,11.69
2022-09-28T08:55:39.557Z,11.65
2022-09-28T08:58:33.199Z,11.74
2022-09-28T09:01:22.397Z,11.67
2022-09-28T09:04:10.213Z,11.85
2022-09-28T09:07:33.949Z,12.08
2022-09-28T09:10:48.627Z,12.37
2022-09-28T09:13:53.913Z,12.48
2022-09-28T09:17:00.387Z,12.59
2022-09-28T09:20:18.899Z,12.41
2022-09-28T09:23:20.292Z,12.10
2022-09-28T09:26:22.085Z,11.97
2022-09-28T09:29:26.701Z,11.82
2022-09-28T09:32:31.246Z,11.93
2022-09-28T09:35:33.395Z,11.86
2022-09-28T09:38:53.617Z,11.74
2022-09-28T09:42:37.060Z,11.87
2022-09-28T09:45:56.842Z,11.94
2022-09-28T09:49:02.883Z,12.10
2022-09-28T09:51:57.562Z,12.18
2022-09-28T09:54:52.364Z,12.17
2022-09-28T09:58:16.983Z,12.17
2022-09-28T10:01:10.312Z,11.95
2022-09-28T10:04:22.207Z,12.16
2022-09-28T10:07:17.501Z,12.13
2022-09-28T10:10:13.539Z,12.09
2022-09-28T10:13:06.251Z,12.03
2022-09-28T10:15:53.057Z,12.00
2022-09-28T10:18:54.073Z,11.88
2022-09-28T10:22:02.735Z,11.84
2022-09-28T10:24:57.654Z,11.66
2022-09-28T10:27:49.506Z,11.41
2022-09-28T10:30:44.671Z,11.30
2022-09-28T10:33:34.062Z,11.19
2022-09-28T10:36:21.477Z,11.26
2022-09-28T10:39:31.179Z,11.14
2022-09-28T10:42:23.917Z,11.09
2022-09-28T10:45:22.402Z,11.05
2022-09-28T10:48:19.498Z,10.96
2022-09-28T10:51:08.836Z,11.03
2022-09-28T10:54:01.869Z,11.27
2022-09-28T10:57:04.231Z,11.41
2022-09-28T11:00:32.775Z,11.68
2022-09-28T11:03:33.327Z,11.79
2022-09-28T11:06:28.193Z,11.75
2022-09-28T11:09:30.841Z,11.71
2022-09-28T11:12:24.066Z,12.22
2022-09-28T11:15:18.928Z,12.34
2022-09-28T11:18:25.804Z,12.38
2022-09-28T11:21:16.218Z,12.57
2022-09-28T11:24:24.588Z,12.76
2022-09-28T11:27:22.122Z,12.86
2022-09-28T11:30:24.898Z,12.98
2022-09-28T11:33:38.508Z,12.93
2022-09-28T11:37:28.049Z,12.96
2022-09-28T11:40:27.832Z,13.07
2022-09-28T11:43:23.183Z,13.19
2022-09-28T11:46:16.840Z,13.07
2022-09-28T11:49:12.410Z,13.10
2022-09-28T11:52:04.404Z,13.34
2022-09-28T11:54:57.095Z,13.24
2022-09-28T11:57:49.392Z,13.22
2022-09-28T12:00:43.370Z,13.18
2022-09-28T12:03:40.669Z,12.98
2022-09-28T12:06:34.192Z,12.96
2022-09-28T12:09:28.715Z,12.80
2022-09-28T12:12:33.544Z,12.48
2022-09-28T12:15:34.915Z,12.20
2022-09-28T12:18:34.742Z,12.03
2022-09-28T12:21:38.645Z,11.87
2022-09-28T12:24:29.931Z,11.89
2022-09-28T12:27:24.344Z,12.03
2022-09-28T12:30:16.603Z,12.00
2022-09-28T12:33:06.532Z,11.95
2022-09-28T12:36:13.277Z,11.68
2022-09-28T12:39:40.844Z,11.81
2022-09-28T12:42:47.162Z,11.59
2022-09-28T12:46:11.373Z,11.69
2022-09-28T12:53:03.268Z,11.76
2022-09-28T12:56:00.709Z,11.63
2022-09-28T12:59:01.125Z,11.56
2022-09-28T13:02:04.915Z,11.49
2022-09-28T13:05:17.461Z,11.50
2022-09-28T13:08:11.587Z,11.47
2022-09-28T13:11:11.034Z,11.49
2022-09-28T13:14:15.883Z,11.59
2022-09-28T13:17:15.069Z,11.90
2022-09-28T13:20:16.069Z,12.08
2022-09-28T13:23:15.750Z,12.25
2022-09-28T13:26:14.036Z,12.31
2022-09-28T13:29:05.010Z,12.45
2022-09-28T13:31:56.051Z,12.32
2022-09-28T13:34:42.846Z,12.51
2022-09-28T13:37:30.510Z,12.29
2022-09-28T13:40:17.489Z,12.15
2022-09-28T13:43:19.847Z,11.98
2022-09-28T13:46:14.145Z,11.82
2022-09-28T13:49:12.417Z,11.74
2022-09-28T13:52:05.991Z,11.55
2022-09-28T13:55:04.239Z,11.45
2022-09-28T13:57:57.106Z,11.39
2022-09-28T14:00:51.399Z,11.32
2022-09-28T14:03:54.423Z,11.06
2022-09-28T14:06:48.118Z,11.07
2022-09-28T14:09:46.846Z,11.40
2022-09-28T14:12:47.931Z,11.22
2022-09-28T14:15:47.034Z,11.15
2022-09-28T14:18:35.272Z,11.11
2022-09-28T14:21:42.843Z,11.09
2022-09-28T14:24:46.092Z,11.16
2022-09-28T14:27:55.596Z,11.46
2022-09-28T14:30:53.222Z,11.98
2022-09-28T14:33:42.798Z,12.19
2022-09-28T14:36:52.769Z,12.19
2022-09-28T14:39:57.124Z,12.11
2022-09-28T14:43:28.728Z,12.07
2022-09-28T14:46:38.491Z,11.80
2022-09-28T14:49:44.969Z,11.87
2022-09-28T14:52:46.425Z,11.84
2022-09-28T14:55:35.893Z,11.76
2022-09-28T14:58:25.787Z,11.58
2022-09-28T15:01:21.299Z,11.66
2022-09-28T15:04:12.760Z,11.49
2022-09-28T15:07:00.980Z,11.44
2022-09-28T15:09:49.687Z,11.44
2022-09-28T15:12:36.753Z,11.41
2022-09-28T15:15:34.605Z,11.30
2022-09-28T15:18:48.591Z,11.31
2022-09-28T15:21:37.736Z,11.25
2022-09-28T15:24:32.840Z,11.27
2022-09-28T15:27:19.326Z,11.14
2022-09-28T15:30:23.059Z,11.07
2022-09-28T15:33:43.085Z,10.80
2022-09-28T15:36:34.671Z,10.67
2022-09-28T15:39:25.608Z,10.63
2022-09-28T15:42:12.677Z,10.38
2022-09-28T15:45:08.226Z,10.32
2022-09-28T15:48:03.705Z,10.21
2022-09-28T15:51:01.393Z,10.05
2022-09-28T15:53:58.290Z,9.89
2022-09-28T15:56:53.734Z,9.84
2022-09-28T15:59:43.971Z,9.71
2022-09-28T16:02:31.209Z,9.56
2022-09-28T16:05:35.817Z,9.48
2022-09-28T16:08:25.609Z,9.44
2022-09-28T16:11:20.043Z,9.39
2022-09-28T16:14:15.628Z,9.32
2022-09-28T16:17:04.159Z,9.25
2022-09-28T16:19:51.064Z,9.24
2022-09-28T16:22:37.776Z,9.18
2022-09-28T16:25:27.888Z,9.20
2022-09-28T16:28:46.094Z,9.15
2022-09-28T16:31:34.800Z,9.08
2022-09-28T16:34:25.362Z,9.04
2022-09-28T16:37:31.665Z,8.96
2022-09-28T16:40:18.569Z,8.93
2022-09-28T16:43:07.955Z,8.90
2022-09-28T16:45:58.181Z,8.85
2022-09-28T16:48:48.658Z,8.84
2022-09-28T16:51:35.512Z,8.80
2022-09-28T16:54:41.560Z,8.81
2022-09-28T16:57:28.339Z,8.85
2022-09-28T17:00:19.809Z,8.85
2022-09-28T17:03:15.279Z,8.86
2022-09-28T17:06:04.480Z,8.84
2022-09-28T17:08:51.211Z,8.84
2022-09-28T17:11:38.349Z,8.84
2022-09-28T17:14:25.638Z,8.82
2022-09-28T17:17:16.881Z,8.83
2022-09-28T17:20:17.473Z,8.83
2022-09-28T17:23:04.370Z,8.85
2022-09-28T17:25:50.995Z,8.84
2022-09-28T17:28:37.904Z,8.84
2022-09-28T17:31:24.405Z,8.84
2022-09-28T17:34:12.808Z,8.83
2022-09-28T17:37:00.713Z,8.83
2022-09-28T17:39:47.401Z,8.84
2022-09-28T17:42:34.292Z,8.81
2022-09-28T17:45:21.067Z,8.79
2022-09-28T17:48:09.155Z,8.75
2022-09-28T17:50:55.734Z,8.79
2022-09-28T17:53:43.971Z,8.79
2022-09-28T17:56:32.639Z,8.81
2022-09-28T17:59:19.742Z,8.78
2022-09-28T18:02:10.875Z,8.76
2022-09-28T18:04:57.659Z,8.80
2022-09-28T18:07:47.716Z,8.78
2022-09-28T18:10:36.303Z,8.79
2022-09-28T18:13:23.488Z,8.79
2022-09-28T18:16:10.763Z,8.78
2022-09-28T18:18:57.727Z,8.78
2022-09-28T18:21:44.435Z,8.76
2022-09-28T18:24:32.658Z,8.76
2022-09-28T18:27:21.085Z,8.81
2022-09-28T18:30:09.014Z,8.83
2022-09-28T18:32:56.021Z,8.85
2022-09-28T18:35:51.456Z,8.83
2022-09-28T18:38:38.541Z,8.87
2022-09-28T18:41:25.405Z,8.92
2022-09-28T18:44:13.622Z,8.94
2022-09-28T18:47:02.421Z,8.91
2022-09-28T18:49:51.056Z,8.91
2022-09-28T18:52:38.281Z,9.05
2022-09-28T18:55:24.912Z,8.99
2022-09-28T18:58:12.914Z,9.06
2022-09-28T19:01:27.993Z,8.94
2022-09-28T19:04:09.787Z,8.88
2022-09-28T19:06:56.633Z,8.82
2022-09-28T19:09:44.299Z,8.76
2022-09-28T19:12:31.104Z,8.74
2022-09-28T19:15:18.640Z,8.68
2022-09-28T19:18:07.005Z,8.63
2022-09-28T19:20:54.608Z,8.57
2022-09-28T19:23:44.797Z,8.49
2022-09-28T19:26:35.637Z,8.43
2022-09-28T19:29:22.752Z,8.38
2022-09-28T19:32:09.422Z,8.33
2022-09-28T19:34:57.726Z,8.28
2022-09-28T19:37:46.777Z,8.22
2022-09-28T19:40:33.214Z,8.18
2022-09-28T19:43:21.437Z,8.17
2022-09-28T19:46:08.576Z,8.08
2022-09-28T19:48:56.652Z,8.06
2022-09-28T19:52:08.502Z,8.02
2022-09-28T19:54:56.787Z,7.99
2022-09-28T19:57:46.450Z,7.99
2022-09-28T20:00:33.373Z,8.02
2022-09-28T20:03:20.053Z,8.04
2022-09-28T20:06:07.543Z,8.07
2022-09-28T20:08:55.894Z,8.08
2022-09-28T20:11:42.856Z,8.07
2022-09-28T20:14:33.138Z,8.05
2022-09-28T20:17:22.856Z,8.04
2022-09-28T20:20:09.949Z,7.98
2022-09-28T20:22:56.770Z,7.94
2022-09-28T20:25:44.827Z,7.88
2022-09-28T20:28:31.936Z,7.81
2022-09-28T20:31:21.551Z,7.77
2022-09-28T20:34:08.323Z,7.69
2022-09-28T20:36:54.731Z,7.63
2022-09-28T20:39:44.798Z,7.55
2022-09-28T20:42:33.181Z,7.45
2022-09-28T20:45:20.188Z,7.41
2022-09-28T20:48:07.447Z,7.40
2022-09-28T20:51:02.972Z,7.36
2022-09-28T20:53:51.606Z,7.35
2022-09-28T20:56:39.045Z,7.38
2022-09-28T20:59:27.816Z,7.37
2022-09-28T21:02:16.573Z,7.40
2022-09-28T21:05:03.044Z,7.45
2022-09-28T21:07:49.725Z,7.48
2022-09-28T21:10:36.600Z,7.55
2022-09-28T21:13:24.113Z,7.66
2022-09-28T21:16:12.697Z,7.62
2022-09-28T21:18:59.993Z,7.55
2022-09-28T21:21:46.933Z,7.69
2022-09-28T21:24:33.598Z,7.68
2022-09-28T21:27:20.402Z,7.70
2022-09-28T21:30:09.306Z,7.70
2022-09-28T21:32:57.309Z,7.84
2022-09-28T21:35:44.058Z,7.75
2022-09-28T21:38:31.225Z,7.71
2022-09-28T21:41:18.085Z,7.67
2022-09-28T21:44:04.525Z,7.68
2022-09-28T21:46:51.274Z,7.69
2022-09-28T21:49:39.453Z,7.73
2022-09-28T21:52:26.208Z,7.72
2022-09-28T21:55:13.105Z,7.76
2022-09-28T21:57:59.764Z,7.76
2022-09-28T22:00:46.407Z,7.82
2022-09-28T22:03:34.881Z,7.86
2022-09-28T22:06:28.065Z,7.89
2022-09-28T22:09:15.241Z,7.92
2022-09-28T22:12:02.437Z,7.97
2022-09-28T22:14:50.263Z,7.96
2022-09-28T22:17:36.979Z,7.99
2022-09-28T22:20:23.813Z,8.00
2022-09-28T22:23:12.635Z,8.05
2022-09-28T22:26:00.558Z,8.08
2022-09-28T22:28:48.743Z,8.10
2022-09-28T22:31:38.230Z,8.12
2022-09-28T22:34:24.783Z,8.16
2022-09-28T22:37:11.306Z,8.16
2022-09-28T22:40:00.785Z,8.19
2022-09-28T22:42:47.473Z,8.20
2022-09-28T22:45:34.028Z,8.19
2022-09-28T22:48:21.294Z,8.19
2022-09-28T22:51:08.408Z,8.18
2022-09-28T22:53:54.961Z,8.18
2022-09-28T22:56:52.698Z,8.14
2022-09-28T22:59:42.073Z,8.30
2022-09-28T23:02:30.198Z,8.23
2022-09-28T23:05:18.444Z,8.22
2022-09-28T23:08:05.343Z,8.21
2022-09-28T23:10:53.725Z,8.16
2022-09-28T23:13:44.156Z,8.18
2022-09-28T23:16:31.904Z,8.20
2022-09-28T23:19:20.100Z,8.21
2022-09-28T23:22:08.816Z,8.21
2022-09-28T23:24:57.773Z,8.21
2022-09-28T23:27:49.328Z,8.25
2022-09-28T23:30:40.315Z,8.25
2022-09-28T23:33:29.308Z,8.39
2022-09-28T23:36:19.353Z,8.35
2022-09-28T23:39:12.301Z,8.31
2022-09-28T23:42:06.406Z,8.31
2022-09-28T23:45:00.088Z,8.32
2022-09-28T23:47:49.944Z,8.31
2022-09-28T23:50:42.104Z,8.32
2022-09-28T23:53:36.420Z,8.32
2022-09-28T23:56:28.806Z,8.35
2022-09-28T23:59:20.146Z,8.32
